sensor_id;sensor_type;location;lat;lon;timestamp;P1;durP1;ratioP1;P2;durP2;ratioP2
32297;SDS011;18782;48.984;8.548;2023-09-08T00:00:11;8.60;;;4.38;;
32297;SDS011;18782;48.984;8.548;2023-09-08T00:02:40;6.95;;;4.53;;
32297;SDS011;18782;48.984;8.548;2023-09-08T00:05:08;5.60;;;4.45;;
32297;SDS011;18782;48.984;8.548;2023-09-08T00:07:37;6.68;;;4.25;;
32297;SDS011;18782;48.984;8.548;2023-09-08T00:10:04;5.40;;;4.60;;
32297;SDS011;18782;48.984;8.548;2023-09-08T00:12:33;6.68;;;4.40;;
32297;SDS011;18782;48.984;8.548;2023-09-08T00:15:00;5.65;;;4.30;;
32297;SDS011;18782;48.984;8.548;2023-09-08T00:17:28;7.25;;;4.70;;
32297;SDS011;18782;48.984;8.548;2023-09-08T00:19:57;6.68;;;4.43;;
32297;SDS011;18782;48.984;8.548;2023-09-08T00:22:25;6.72;;;4.50;;
32297;SDS011;18782;48.984;8.548;2023-09-08T00:24:53;6.90;;;4.47;;
32297;SDS011;18782;48.984;8.548;2023-09-08T00:27:21;6.00;;;4.22;;
32297;SDS011;18782;48.984;8.548;2023-09-08T00:29:49;5.88;;;4.07;;
32297;SDS011;18782;48.984;8.548;2023-09-08T00:32:16;4.90;;;4.40;;
32297;SDS011;18782;48.984;8.548;2023-09-08T00:34:44;4.60;;;4.00;;
32297;SDS011;18782;48.984;8.548;2023-09-08T00:37:13;6.50;;;4.68;;
32297;SDS011;18782;48.984;8.548;2023-09-08T00:39:41;10.43;;;4.85;;
32297;SDS011;18782;48.984;8.548;2023-09-08T00:42:09;5.82;;;4.63;;
32297;SDS011;18782;48.984;8.548;2023-09-08T00:44:36;5.07;;;4.35;;
32297;SDS011;18782;48.984;8.548;2023-09-08T00:47:04;8.13;;;4.63;;
32297;SDS011;18782;48.984;8.548;2023-09-08T00:49:32;7.13;;;4.15;;
32297;SDS011;18782;48.984;8.548;2023-09-08T00:52:00;8.05;;;5.05;;
32297;SDS011;18782;48.984;8.548;2023-09-08T00:54:29;8.05;;;4.80;;
32297;SDS011;18782;48.984;8.548;2023-09-08T00:56:57;7.00;;;4.20;;
32297;SDS011;18782;48.984;8.548;2023-09-08T00:59:24;6.20;;;4.82;;
32297;SDS011;18782;48.984;8.548;2023-09-08T01:01:52;5.40;;;4.40;;
32297;SDS011;18782;48.984;8.548;2023-09-08T01:04:20;5.63;;;4.38;;
32297;SDS011;18782;48.984;8.548;2023-09-08T01:06:48;6.38;;;4.57;;
32297;SDS011;18782;48.984;8.548;2023-09-08T01:09:18;6.63;;;4.90;;
32297;SDS011;18782;48.984;8.548;2023-09-08T01:11:47;6.80;;;5.10;;
32297;SDS011;18782;48.984;8.548;2023-09-08T01:14:17;5.97;;;4.25;;
32297;SDS011;18782;48.984;8.548;2023-09-08T01:16:45;6.45;;;4.40;;
32297;SDS011;18782;48.984;8.548;2023-09-08T01:19:13;5.15;;;4.65;;
32297;SDS011;18782;48.984;8.548;2023-09-08T01:21:50;4.95;;;4.38;;
32297;SDS011;18782;48.984;8.548;2023-09-08T01:24:37;7.40;;;4.65;;
32297;SDS011;18782;48.984;8.548;2023-09-08T01:27:32;4.50;;;4.10;;
32297;SDS011;18782;48.984;8.548;2023-09-08T01:30:02;7.30;;;4.82;;
32297;SDS011;18782;48.984;8.548;2023-09-08T01:32:31;7.22;;;5.03;;
32297;SDS011;18782;48.984;8.548;2023-09-08T01:34:59;5.43;;;4.72;;
32297;SDS011;18782;48.984;8.548;2023-09-08T01:37:28;6.03;;;4.60;;
32297;SDS011;18782;48.984;8.548;2023-09-08T01:39:55;5.68;;;4.40;;
32297;SDS011;18782;48.984;8.548;2023-09-08T01:42:23;5.82;;;4.40;;
32297;SDS011;18782;48.984;8.548;2023-09-08T01:44:52;5.68;;;4.60;;
32297;SDS011;18782;48.984;8.548;2023-09-08T01:47:20;4.43;;;4.03;;
32297;SDS011;18782;48.984;8.548;2023-09-08T01:49:47;7.03;;;4.15;;
32297;SDS011;18782;48.984;8.548;2023-09-08T01:52:15;7.78;;;4.60;;
32297;SDS011;18782;48.984;8.548;2023-09-08T01:54:43;4.75;;;4.25;;
32297;SDS011;18782;48.984;8.548;2023-09-08T01:57:10;6.63;;;4.50;;
32297;SDS011;18782;48.984;8.548;2023-09-08T01:59:39;6.85;;;4.45;;
32297;SDS011;18782;48.984;8.548;2023-09-08T02:02:08;5.38;;;4.47;;
32297;SDS011;18782;48.984;8.548;2023-09-08T02:04:35;5.20;;;3.88;;
32297;SDS011;18782;48.984;8.548;2023-09-08T02:07:03;5.55;;;4.13;;
32297;SDS011;18782;48.984;8.548;2023-09-08T02:09:31;6.57;;;4.63;;
32297;SDS011;18782;48.984;8.548;2023-09-08T02:12:00;5.70;;;4.07;;
32297;SDS011;18782;48.984;8.548;2023-09-08T02:14:28;6.95;;;4.72;;
32297;SDS011;18782;48.984;8.548;2023-09-08T02:16:56;8.45;;;4.75;;
32297;SDS011;18782;48.984;8.548;2023-09-08T02:19:26;6.85;;;5.15;;
32297;SDS011;18782;48.984;8.548;2023-09-08T02:21:53;6.10;;;4.53;;
32297;SDS011;18782;48.984;8.548;2023-09-08T02:24:21;5.00;;;4.53;;
32297;SDS011;18782;48.984;8.548;2023-09-08T02:26:49;6.78;;;4.78;;
32297;SDS011;18782;48.984;8.548;2023-09-08T02:29:17;5.57;;;4.68;;
32297;SDS011;18782;48.984;8.548;2023-09-08T02:31:45;5.25;;;4.07;;
32297;SDS011;18782;48.984;8.548;2023-09-08T02:34:13;5.88;;;4.72;;
32297;SDS011;18782;48.984;8.548;2023-09-08T02:36:43;11.43;;;8.85;;
32297;SDS011;18782;48.984;8.548;2023-09-08T02:39:14;12.18;;;9.05;;
32297;SDS011;18782;48.984;8.548;2023-09-08T02:41:42;6.60;;;4.93;;
32297;SDS011;18782;48.984;8.548;2023-09-08T02:44:10;5.57;;;4.70;;
32297;SDS011;18782;48.984;8.548;2023-09-08T02:46:38;6.32;;;4.18;;
32297;SDS011;18782;48.984;8.548;2023-09-08T02:49:05;4.82;;;4.28;;
32297;SDS011;18782;48.984;8.548;2023-09-08T02:51:33;5.50;;;4.38;;
32297;SDS011;18782;48.984;8.548;2023-09-08T02:54:02;6.22;;;4.85;;
32297;SDS011;18782;48.984;8.548;2023-09-08T02:56:30;6.57;;;4.90;;
32297;SDS011;18782;48.984;8.548;2023-09-08T02:58:58;5.28;;;4.40;;
32297;SDS011;18782;48.984;8.548;2023-09-08T03:01:25;5.03;;;4.53;;
32297;SDS011;18782;48.984;8.548;2023-09-08T03:03:53;5.97;;;4.50;;
32297;SDS011;18782;48.984;8.548;2023-09-08T03:06:21;5.97;;;4.40;;
32297;SDS011;18782;48.984;8.548;2023-09-08T03:08:49;6.28;;;4.45;;
32297;SDS011;18782;48.984;8.548;2023-09-08T03:11:18;6.50;;;4.72;;
32297;SDS011;18782;48.984;8.548;2023-09-08T03:13:46;6.82;;;4.65;;
32297;SDS011;18782;48.984;8.548;2023-09-08T03:16:13;5.43;;;4.30;;
32297;SDS011;18782;48.984;8.548;2023-09-08T03:18:41;5.35;;;4.68;;
32297;SDS011;18782;48.984;8.548;2023-09-08T03:21:09;4.63;;;4.07;;
32297;SDS011;18782;48.984;8.548;2023-09-08T03:23:37;5.95;;;4.32;;
32297;SDS011;18782;48.984;8.548;2023-09-08T03:26:05;5.38;;;4.80;;
32297;SDS011;18782;48.984;8.548;2023-09-08T03:28:35;5.70;;;4.60;;
32297;SDS011;18782;48.984;8.548;2023-09-08T03:31:05;6.05;;;4.70;;
32297;SDS011;18782;48.984;8.548;2023-09-08T03:33:34;5.57;;;4.68;;
32297;SDS011;18782;48.984;8.548;2023-09-08T03:36:03;6.88;;;4.80;;
32297;SDS011;18782;48.984;8.548;2023-09-08T03:38:32;4.50;;;4.10;;
32297;SDS011;18782;48.984;8.548;2023-09-08T03:41:03;5.13;;;4.43;;
32297;SDS011;18782;48.984;8.548;2023-09-08T03:43:31;5.80;;;4.25;;
32297;SDS011;18782;48.984;8.548;2023-09-08T03:46:01;5.88;;;4.35;;
32297;SDS011;18782;48.984;8.548;2023-09-08T03:48:29;5.55;;;4.38;;
32297;SDS011;18782;48.984;8.548;2023-09-08T03:50:57;6.25;;;4.70;;
32297;SDS011;18782;48.984;8.548;2023-09-08T03:53:26;5.03;;;4.30;;
32297;SDS011;18782;48.984;8.548;2023-09-08T03:55:54;6.93;;;4.82;;
32297;SDS011;18782;48.984;8.548;2023-09-08T03:58:22;4.82;;;4.05;;
32297;SDS011;18782;48.984;8.548;2023-09-08T04:00:49;6.28;;;4.63;;
32297;SDS011;18782;48.984;8.548;2023-09-08T04:03:19;5.22;;;4.72;;
32297;SDS011;18782;48.984;8.548;2023-09-08T04:05:46;5.30;;;4.35;;
32297;SDS011;18782;48.984;8.548;2023-09-08T04:08:14;6.28;;;4.82;;
32297;SDS011;18782;48.984;8.548;2023-09-08T04:10:42;4.72;;;4.20;;
32297;SDS011;18782;48.984;8.548;2023-09-08T04:13:10;5.78;;;4.55;;
32297;SDS011;18782;48.984;8.548;2023-09-08T04:15:38;5.85;;;4.95;;
32297;SDS011;18782;48.984;8.548;2023-09-08T04:18:05;4.85;;;4.35;;
32297;SDS011;18782;48.984;8.548;2023-09-08T04:20:35;4.95;;;4.15;;
32297;SDS011;18782;48.984;8.548;2023-09-08T04:23:02;4.97;;;4.38;;
32297;SDS011;18782;48.984;8.548;2023-09-08T04:25:30;8.13;;;6.13;;
32297;SDS011;18782;48.984;8.548;2023-09-08T04:27:58;6.72;;;5.40;;
32297;SDS011;18782;48.984;8.548;2023-09-08T04:30:26;6.10;;;5.50;;
32297;SDS011;18782;48.984;8.548;2023-09-08T04:32:53;6.38;;;4.55;;
32297;SDS011;18782;48.984;8.548;2023-09-08T04:35:21;6.60;;;4.60;;
32297;SDS011;18782;48.984;8.548;2023-09-08T04:37:50;6.68;;;4.85;;
32297;SDS011;18782;48.984;8.548;2023-09-08T04:40:18;7.35;;;5.10;;
32297;SDS011;18782;48.984;8.548;2023-09-08T04:42:46;5.95;;;5.22;;
32297;SDS011;18782;48.984;8.548;2023-09-08T04:45:14;6.50;;;5.35;;
32297;SDS011;18782;48.984;8.548;2023-09-08T04:47:41;5.60;;;4.65;;
32297;SDS011;18782;48.984;8.548;2023-09-08T04:50:09;6.22;;;4.63;;
32297;SDS011;18782;48.984;8.548;2023-09-08T04:52:37;6.68;;;4.30;;
32297;SDS011;18782;48.984;8.548;2023-09-08T04:55:07;6.80;;;4.55;;
32297;SDS011;18782;48.984;8.548;2023-09-08T04:57:36;5.13;;;4.43;;
32297;SDS011;18782;48.984;8.548;2023-09-08T05:00:03;6.55;;;5.43;;
32297;SDS011;18782;48.984;8.548;2023-09-08T05:02:33;5.22;;;4.72;;
32297;SDS011;18782;48.984;8.548;2023-09-08T05:05:02;7.45;;;4.72;;
32297;SDS011;18782;48.984;8.548;2023-09-08T05:07:30;7.00;;;5.20;;
32297;SDS011;18782;48.984;8.548;2023-09-08T05:09:58;6.03;;;4.55;;
32297;SDS011;18782;48.984;8.548;2023-09-08T05:12:30;5.43;;;4.50;;
32297;SDS011;18782;48.984;8.548;2023-09-08T05:14:59;5.85;;;4.50;;
32297;SDS011;18782;48.984;8.548;2023-09-08T05:17:35;9.73;;;5.05;;
32297;SDS011;18782;48.984;8.548;2023-09-08T05:20:03;9.23;;;5.97;;
32297;SDS011;18782;48.984;8.548;2023-09-08T05:22:32;6.18;;;5.25;;
32297;SDS011;18782;48.984;8.548;2023-09-08T05:24:59;6.70;;;5.03;;
32297;SDS011;18782;48.984;8.548;2023-09-08T05:27:27;7.30;;;5.38;;
32297;SDS011;18782;48.984;8.548;2023-09-08T05:29:57;5.82;;;4.72;;
32297;SDS011;18782;48.984;8.548;2023-09-08T05:32:24;5.85;;;4.70;;
32297;SDS011;18782;48.984;8.548;2023-09-08T05:34:53;5.20;;;4.70;;
32297;SDS011;18782;48.984;8.548;2023-09-08T05:37:21;5.70;;;5.10;;
32297;SDS011;18782;48.984;8.548;2023-09-08T05:39:49;9.20;;;7.57;;
32297;SDS011;18782;48.984;8.548;2023-09-08T05:42:16;10.45;;;8.43;;
32297;SDS011;18782;48.984;8.548;2023-09-08T05:44:44;7.63;;;6.25;;
32297;SDS011;18782;48.984;8.548;2023-09-08T05:47:16;7.63;;;5.97;;
32297;SDS011;18782;48.984;8.548;2023-09-08T05:49:45;6.45;;;5.10;;
32297;SDS011;18782;48.984;8.548;2023-09-08T05:52:13;6.72;;;4.85;;
32297;SDS011;18782;48.984;8.548;2023-09-08T05:54:42;7.35;;;5.60;;
32297;SDS011;18782;48.984;8.548;2023-09-08T05:57:10;7.78;;;5.65;;
32297;SDS011;18782;48.984;8.548;2023-09-08T05:59:38;7.97;;;5.88;;
32297;SDS011;18782;48.984;8.548;2023-09-08T06:02:06;7.07;;;5.68;;
32297;SDS011;18782;48.984;8.548;2023-09-08T06:04:35;7.25;;;5.45;;
32297;SDS011;18782;48.984;8.548;2023-09-08T06:07:03;6.15;;;5.53;;
32297;SDS011;18782;48.984;8.548;2023-09-08T06:09:32;6.03;;;5.43;;
32297;SDS011;18782;48.984;8.548;2023-09-08T06:12:00;7.32;;;5.22;;
32297;SDS011;18782;48.984;8.548;2023-09-08T06:14:28;6.50;;;5.00;;
32297;SDS011;18782;48.984;8.548;2023-09-08T06:16:56;9.25;;;5.30;;
32297;SDS011;18782;48.984;8.548;2023-09-08T06:19:24;7.95;;;5.03;;
32297;SDS011;18782;48.984;8.548;2023-09-08T06:21:53;8.75;;;5.35;;
32297;SDS011;18782;48.984;8.548;2023-09-08T06:24:21;6.05;;;4.88;;
32297;SDS011;18782;48.984;8.548;2023-09-08T06:26:49;5.95;;;5.35;;
32297;SDS011;18782;48.984;8.548;2023-09-08T06:33:30;10.65;;;7.18;;
32297;SDS011;18782;48.984;8.548;2023-09-08T06:35:58;7.63;;;6.03;;
32297;SDS011;18782;48.984;8.548;2023-09-08T06:38:27;7.57;;;5.47;;
32297;SDS011;18782;48.984;8.548;2023-09-08T06:40:58;5.75;;;5.15;;
32297;SDS011;18782;48.984;8.548;2023-09-08T06:43:27;7.03;;;5.07;;
32297;SDS011;18782;48.984;8.548;2023-09-08T06:46:03;7.63;;;5.07;;
32297;SDS011;18782;48.984;8.548;2023-09-08T06:48:32;5.97;;;4.60;;
32297;SDS011;18782;48.984;8.548;2023-09-08T06:51:00;6.35;;;5.30;;
32297;SDS011;18782;48.984;8.548;2023-09-08T06:53:30;7.57;;;5.28;;
32297;SDS011;18782;48.984;8.548;2023-09-08T06:55:58;8.05;;;5.38;;
32297;SDS011;18782;48.984;8.548;2023-09-08T06:58:28;7.85;;;4.72;;
32297;SDS011;18782;48.984;8.548;2023-09-08T07:00:56;6.47;;;5.55;;
32297;SDS011;18782;48.984;8.548;2023-09-08T07:03:24;8.50;;;5.47;;
32297;SDS011;18782;48.984;8.548;2023-09-08T07:05:53;15.27;;;7.50;;
32297;SDS011;18782;48.984;8.548;2023-09-08T07:08:22;12.40;;;6.30;;
32297;SDS011;18782;48.984;8.548;2023-09-08T07:10:52;8.98;;;6.30;;
32297;SDS011;18782;48.984;8.548;2023-09-08T07:13:21;12.25;;;6.30;;
32297;SDS011;18782;48.984;8.548;2023-09-08T07:15:49;9.90;;;5.70;;
32297;SDS011;18782;48.984;8.548;2023-09-08T07:18:17;6.60;;;5.43;;
32297;SDS011;18782;48.984;8.548;2023-09-08T07:20:46;7.88;;;5.53;;
32297;SDS011;18782;48.984;8.548;2023-09-08T07:23:16;7.10;;;5.38;;
32297;SDS011;18782;48.984;8.548;2023-09-08T07:25:45;7.70;;;5.60;;
32297;SDS011;18782;48.984;8.548;2023-09-08T07:28:15;7.15;;;4.60;;
32297;SDS011;18782;48.984;8.548;2023-09-08T07:30:43;6.85;;;4.82;;
32297;SDS011;18782;48.984;8.548;2023-09-08T07:33:12;6.78;;;5.03;;
32297;SDS011;18782;48.984;8.548;2023-09-08T07:35:40;6.18;;;5.07;;
32297;SDS011;18782;48.984;8.548;2023-09-08T07:38:08;6.70;;;4.80;;
32297;SDS011;18782;48.984;8.548;2023-09-08T07:40:36;7.82;;;5.22;;
32297;SDS011;18782;48.984;8.548;2023-09-08T07:43:05;6.93;;;4.70;;
32297;SDS011;18782;48.984;8.548;2023-09-08T07:45:34;7.03;;;4.78;;
32297;SDS011;18782;48.984;8.548;2023-09-08T07:48:02;5.88;;;4.97;;
32297;SDS011;18782;48.984;8.548;2023-09-08T07:50:30;5.97;;;4.90;;
32297;SDS011;18782;48.984;8.548;2023-09-08T07:52:58;7.32;;;5.25;;
32297;SDS011;18782;48.984;8.548;2023-09-08T07:55:26;6.75;;;4.70;;
32297;SDS011;18782;48.984;8.548;2023-09-08T07:57:55;6.50;;;4.60;;
32297;SDS011;18782;48.984;8.548;2023-09-08T08:00:23;8.07;;;5.47;;
32297;SDS011;18782;48.984;8.548;2023-09-08T08:02:53;5.75;;;5.15;;
32297;SDS011;18782;48.984;8.548;2023-09-08T08:05:22;5.78;;;5.10;;
32297;SDS011;18782;48.984;8.548;2023-09-08T08:07:51;6.10;;;4.40;;
32297;SDS011;18782;48.984;8.548;2023-09-08T08:10:19;7.35;;;6.32;;
32297;SDS011;18782;48.984;8.548;2023-09-08T08:12:47;8.63;;;5.82;;
32297;SDS011;18782;48.984;8.548;2023-09-08T08:15:15;8.48;;;6.45;;
32297;SDS011;18782;48.984;8.548;2023-09-08T08:17:42;9.75;;;6.65;;
32297;SDS011;18782;48.984;8.548;2023-09-08T08:20:12;8.50;;;7.18;;
32297;SDS011;18782;48.984;8.548;2023-09-08T08:22:44;7.32;;;6.07;;
32297;SDS011;18782;48.984;8.548;2023-09-08T08:25:12;8.63;;;6.38;;
32297;SDS011;18782;48.984;8.548;2023-09-08T08:27:40;7.72;;;6.32;;
32297;SDS011;18782;48.984;8.548;2023-09-08T08:30:09;7.18;;;6.15;;
32297;SDS011;18782;48.984;8.548;2023-09-08T08:32:38;6.93;;;6.22;;
32297;SDS011;18782;48.984;8.548;2023-09-08T08:35:05;7.75;;;5.70;;
32297;SDS011;18782;48.984;8.548;2023-09-08T08:37:38;8.32;;;5.72;;
32297;SDS011;18782;48.984;8.548;2023-09-08T08:40:06;6.30;;;5.65;;
32297;SDS011;18782;48.984;8.548;2023-09-08T08:42:37;6.43;;;5.47;;
32297;SDS011;18782;48.984;8.548;2023-09-08T08:45:05;7.53;;;5.40;;
32297;SDS011;18782;48.984;8.548;2023-09-08T08:47:33;7.25;;;5.38;;
32297;SDS011;18782;48.984;8.548;2023-09-08T08:50:01;6.15;;;5.55;;
32297;SDS011;18782;48.984;8.548;2023-09-08T08:52:30;6.25;;;4.85;;
32297;SDS011;18782;48.984;8.548;2023-09-08T08:54:59;6.40;;;5.70;;
32297;SDS011;18782;48.984;8.548;2023-09-08T08:57:27;6.43;;;5.72;;
32297;SDS011;18782;48.984;8.548;2023-09-08T08:59:55;6.47;;;5.88;;
32297;SDS011;18782;48.984;8.548;2023-09-08T09:02:24;6.35;;;5.75;;
32297;SDS011;18782;48.984;8.548;2023-09-08T09:04:55;8.20;;;7.40;;
32297;SDS011;18782;48.984;8.548;2023-09-08T09:07:23;6.70;;;6.07;;
32297;SDS011;18782;48.984;8.548;2023-09-08T09:09:52;7.15;;;5.80;;
32297;SDS011;18782;48.984;8.548;2023-09-08T09:12:21;6.88;;;5.75;;
32297;SDS011;18782;48.984;8.548;2023-09-08T09:14:52;8.88;;;5.95;;
32297;SDS011;18782;48.984;8.548;2023-09-08T09:17:20;6.22;;;5.63;;
32297;SDS011;18782;48.984;8.548;2023-09-08T09:19:49;7.43;;;6.00;;
32297;SDS011;18782;48.984;8.548;2023-09-08T09:22:19;7.38;;;5.88;;
32297;SDS011;18782;48.984;8.548;2023-09-08T09:24:47;7.60;;;4.95;;
32297;SDS011;18782;48.984;8.548;2023-09-08T09:27:15;6.60;;;5.85;;
32297;SDS011;18782;48.984;8.548;2023-09-08T09:29:45;6.32;;;5.72;;
32297;SDS011;18782;48.984;8.548;2023-09-08T09:32:14;7.65;;;5.97;;
32297;SDS011;18782;48.984;8.548;2023-09-08T09:34:49;6.70;;;5.90;;
32297;SDS011;18782;48.984;8.548;2023-09-08T09:37:19;7.53;;;5.55;;
32297;SDS011;18782;48.984;8.548;2023-09-08T09:39:48;7.07;;;5.43;;
32297;SDS011;18782;48.984;8.548;2023-09-08T09:42:16;6.32;;;5.72;;
32297;SDS011;18782;48.984;8.548;2023-09-08T09:44:48;8.95;;;5.88;;
32297;SDS011;18782;48.984;8.548;2023-09-08T09:47:17;5.28;;;4.78;;
32297;SDS011;18782;48.984;8.548;2023-09-08T09:49:47;8.02;;;6.20;;
32297;SDS011;18782;48.984;8.548;2023-09-08T09:52:20;6.72;;;6.03;;
32297;SDS011;18782;48.984;8.548;2023-09-08T09:54:50;6.45;;;5.43;;
32297;SDS011;18782;48.984;8.548;2023-09-08T09:57:20;11.52;;;8.65;;
32297;SDS011;18782;48.984;8.548;2023-09-08T09:59:50;8.35;;;6.20;;
32297;SDS011;18782;48.984;8.548;2023-09-08T10:02:20;5.72;;;5.20;;
32297;SDS011;18782;48.984;8.548;2023-09-08T10:04:49;6.65;;;5.07;;
32297;SDS011;18782;48.984;8.548;2023-09-08T10:07:18;5.78;;;5.25;;
32297;SDS011;18782;48.984;8.548;2023-09-08T10:09:46;7.40;;;5.28;;
32297;SDS011;18782;48.984;8.548;2023-09-08T10:12:14;7.43;;;5.50;;
32297;SDS011;18782;48.984;8.548;2023-09-08T10:14:44;6.53;;;5.80;;
32297;SDS011;18782;48.984;8.548;2023-09-08T10:17:18;8.15;;;5.13;;
32297;SDS011;18782;48.984;8.548;2023-09-08T10:19:54;7.10;;;5.55;;
32297;SDS011;18782;48.984;8.548;2023-09-08T10:22:29;5.53;;;5.00;;
32297;SDS011;18782;48.984;8.548;2023-09-08T10:24:58;6.35;;;5.75;;
32297;SDS011;18782;48.984;8.548;2023-09-08T10:27:31;8.25;;;6.10;;
32297;SDS011;18782;48.984;8.548;2023-09-08T10:30:02;7.05;;;5.25;;
32297;SDS011;18782;48.984;8.548;2023-09-08T10:32:33;7.60;;;6.05;;
32297;SDS011;18782;48.984;8.548;2023-09-08T10:35:04;6.20;;;5.60;;
32297;SDS011;18782;48.984;8.548;2023-09-08T10:37:32;7.53;;;5.85;;
32297;SDS011;18782;48.984;8.548;2023-09-08T10:42:49;8.30;;;5.40;;
32297;SDS011;18782;48.984;8.548;2023-09-08T10:45:33;6.18;;;5.60;;
32297;SDS011;18782;48.984;8.548;2023-09-08T10:48:02;6.07;;;5.32;;
32297;SDS011;18782;48.984;8.548;2023-09-08T10:50:31;6.07;;;5.47;;
32297;SDS011;18782;48.984;8.548;2023-09-08T10:53:15;6.40;;;5.45;;
32297;SDS011;18782;48.984;8.548;2023-09-08T10:55:44;6.43;;;5.35;;
32297;SDS011;18782;48.984;8.548;2023-09-08T10:58:35;6.30;;;5.78;;
32297;SDS011;18782;48.984;8.548;2023-09-08T11:01:05;6.38;;;5.78;;
32297;SDS011;18782;48.984;8.548;2023-09-08T11:03:44;6.55;;;5.22;;
32297;SDS011;18782;48.984;8.548;2023-09-08T11:06:15;7.28;;;5.50;;
32297;SDS011;18782;48.984;8.548;2023-09-08T11:08:44;6.40;;;5.80;;
32297;SDS011;18782;48.984;8.548;2023-09-08T11:11:14;7.03;;;5.80;;
32297;SDS011;18782;48.984;8.548;2023-09-08T11:13:43;5.38;;;4.80;;
32297;SDS011;18782;48.984;8.548;2023-09-08T11:16:12;5.43;;;4.93;;
32297;SDS011;18782;48.984;8.548;2023-09-08T11:18:41;6.10;;;5.50;;
32297;SDS011;18782;48.984;8.548;2023-09-08T11:21:11;6.70;;;5.25;;
32297;SDS011;18782;48.984;8.548;2023-09-08T11:23:38;5.88;;;5.28;;
32297;SDS011;18782;48.984;8.548;2023-09-08T11:26:06;8.93;;;5.63;;
32297;SDS011;18782;48.984;8.548;2023-09-08T11:28:35;3.50;;;3.20;;
32297;SDS011;18782;48.984;8.548;2023-09-08T11:31:05;4.38;;;3.97;;
32297;SDS011;18782;48.984;8.548;2023-09-08T11:33:33;6.68;;;5.70;;
32297;SDS011;18782;48.984;8.548;2023-09-08T11:36:11;5.32;;;4.80;;
32297;SDS011;18782;48.984;8.548;2023-09-08T11:38:43;6.72;;;5.30;;
32297;SDS011;18782;48.984;8.548;2023-09-08T11:41:11;7.57;;;5.38;;
32297;SDS011;18782;48.984;8.548;2023-09-08T11:43:39;5.68;;;5.10;;
32297;SDS011;18782;48.984;8.548;2023-09-08T11:46:07;6.47;;;4.93;;
32297;SDS011;18782;48.984;8.548;2023-09-08T11:48:37;6.35;;;5.28;;
32297;SDS011;18782;48.984;8.548;2023-09-08T11:51:06;7.07;;;5.10;;
32297;SDS011;18782;48.984;8.548;2023-09-08T11:53:35;6.30;;;5.03;;
32297;SDS011;18782;48.984;8.548;2023-09-08T11:56:04;6.40;;;5.10;;
32297;SDS011;18782;48.984;8.548;2023-09-08T11:58:32;5.75;;;5.10;;
32297;SDS011;18782;48.984;8.548;2023-09-08T12:01:01;7.25;;;5.68;;
32297;SDS011;18782;48.984;8.548;2023-09-08T12:03:30;6.45;;;5.22;;
32297;SDS011;18782;48.984;8.548;2023-09-08T12:05:58;6.80;;;5.13;;
32297;SDS011;18782;48.984;8.548;2023-09-08T12:08:28;8.93;;;5.00;;
32297;SDS011;18782;48.984;8.548;2023-09-08T12:10:58;5.82;;;5.22;;
32297;SDS011;18782;48.984;8.548;2023-09-08T12:13:26;5.32;;;4.82;;
32297;SDS011;18782;48.984;8.548;2023-09-08T12:15:53;7.72;;;4.80;;
32297;SDS011;18782;48.984;8.548;2023-09-08T12:18:28;5.70;;;5.03;;
32297;SDS011;18782;48.984;8.548;2023-09-08T12:21:05;6.82;;;4.65;;
32297;SDS011;18782;48.984;8.548;2023-09-08T12:23:32;5.20;;;4.70;;
32297;SDS011;18782;48.984;8.548;2023-09-08T12:26:01;5.20;;;4.72;;
32297;SDS011;18782;48.984;8.548;2023-09-08T12:28:30;4.68;;;4.28;;
32297;SDS011;18782;48.984;8.548;2023-09-08T12:30:58;7.13;;;4.68;;
32297;SDS011;18782;48.984;8.548;2023-09-08T12:33:26;5.63;;;4.80;;
32297;SDS011;18782;48.984;8.548;2023-09-08T12:35:54;5.55;;;4.70;;
32297;SDS011;18782;48.984;8.548;2023-09-08T12:38:21;4.93;;;4.43;;
32297;SDS011;18782;48.984;8.548;2023-09-08T12:40:49;5.28;;;4.78;;
32297;SDS011;18782;48.984;8.548;2023-09-08T12:43:18;5.90;;;4.45;;
32297;SDS011;18782;48.984;8.548;2023-09-08T12:45:53;4.85;;;4.30;;
32297;SDS011;18782;48.984;8.548;2023-09-08T12:48:22;5.05;;;3.95;;
32297;SDS011;18782;48.984;8.548;2023-09-08T12:50:51;4.03;;;3.67;;
32297;SDS011;18782;48.984;8.548;2023-09-08T12:53:18;7.45;;;4.40;;
32297;SDS011;18782;48.984;8.548;2023-09-08T12:55:47;6.38;;;4.15;;
32297;SDS011;18782;48.984;8.548;2023-09-08T12:58:15;4.43;;;4.00;;
32297;SDS011;18782;48.984;8.548;2023-09-08T13:00:44;4.57;;;4.18;;
32297;SDS011;18782;48.984;8.548;2023-09-08T13:03:11;4.18;;;3.78;;
32297;SDS011;18782;48.984;8.548;2023-09-08T13:05:39;5.47;;;3.95;;
32297;SDS011;18782;48.984;8.548;2023-09-08T13:08:07;6.25;;;4.10;;
32297;SDS011;18782;48.984;8.548;2023-09-08T13:10:36;4.15;;;3.60;;
32297;SDS011;18782;48.984;8.548;2023-09-08T13:13:03;5.00;;;4.50;;
32297;SDS011;18782;48.984;8.548;2023-09-08T13:15:31;6.63;;;3.88;;
32297;SDS011;18782;48.984;8.548;2023-09-08T13:18:00;6.20;;;4.78;;
32297;SDS011;18782;48.984;8.548;2023-09-08T13:20:28;5.20;;;4.15;;
32297;SDS011;18782;48.984;8.548;2023-09-08T13:22:56;4.45;;;3.72;;
32297;SDS011;18782;48.984;8.548;2023-09-08T13:25:24;4.90;;;3.90;;
32297;SDS011;18782;48.984;8.548;2023-09-08T13:27:51;4.32;;;3.63;;
32297;SDS011;18782;48.984;8.548;2023-09-08T13:30:19;5.68;;;3.33;;
32297;SDS011;18782;48.984;8.548;2023-09-08T13:32:52;6.22;;;4.25;;
32297;SDS011;18782;48.984;8.548;2023-09-08T13:35:23;4.40;;;4.00;;
32297;SDS011;18782;48.984;8.548;2023-09-08T13:37:51;4.35;;;3.80;;
32297;SDS011;18782;48.984;8.548;2023-09-08T13:40:18;4.13;;;3.60;;
32297;SDS011;18782;48.984;8.548;2023-09-08T13:42:47;4.20;;;3.72;;
32297;SDS011;18782;48.984;8.548;2023-09-08T13:45:15;5.18;;;3.80;;
32297;SDS011;18782;48.984;8.548;2023-09-08T13:47:42;4.55;;;4.15;;
32297;SDS011;18782;48.984;8.548;2023-09-08T13:50:10;3.92;;;3.60;;
32297;SDS011;18782;48.984;8.548;2023-09-08T13:52:41;3.85;;;3.53;;
32297;SDS011;18782;48.984;8.548;2023-09-08T13:55:12;5.15;;;3.80;;
32297;SDS011;18782;48.984;8.548;2023-09-08T13:57:43;4.47;;;3.75;;
32297;SDS011;18782;48.984;8.548;2023-09-08T14:00:15;4.57;;;3.55;;
32297;SDS011;18782;48.984;8.548;2023-09-08T14:02:48;6.70;;;3.40;;
32297;SDS011;18782;48.984;8.548;2023-09-08T14:05:19;3.47;;;3.17;;
32297;SDS011;18782;48.984;8.548;2023-09-08T14:07:55;6.30;;;4.22;;
32297;SDS011;18782;48.984;8.548;2023-09-08T14:10:32;5.15;;;3.47;;
32297;SDS011;18782;48.984;8.548;2023-09-08T14:13:02;4.70;;;3.67;;
32297;SDS011;18782;48.984;8.548;2023-09-08T14:15:30;4.18;;;3.53;;
32297;SDS011;18782;48.984;8.548;2023-09-08T14:17:58;4.15;;;3.75;;
32297;SDS011;18782;48.984;8.548;2023-09-08T14:20:26;5.28;;;4.00;;
32297;SDS011;18782;48.984;8.548;2023-09-08T14:22:53;4.32;;;3.85;;
32297;SDS011;18782;48.984;8.548;2023-09-08T14:25:22;4.57;;;3.30;;
32297;SDS011;18782;48.984;8.548;2023-09-08T14:27:50;3.75;;;3.35;;
32297;SDS011;18782;48.984;8.548;2023-09-08T14:30:18;5.18;;;3.83;;
32297;SDS011;18782;48.984;8.548;2023-09-08T14:32:46;3.95;;;3.22;;
32297;SDS011;18782;48.984;8.548;2023-09-08T14:35:13;5.60;;;3.67;;
32297;SDS011;18782;48.984;8.548;2023-09-08T14:37:41;4.28;;;3.60;;
32297;SDS011;18782;48.984;8.548;2023-09-08T14:40:09;5.53;;;4.18;;
32297;SDS011;18782;48.984;8.548;2023-09-08T14:42:39;4.63;;;4.00;;
32297;SDS011;18782;48.984;8.548;2023-09-08T14:45:07;4.40;;;4.00;;
32297;SDS011;18782;48.984;8.548;2023-09-08T14:47:35;4.25;;;3.85;;
32297;SDS011;18782;48.984;8.548;2023-09-08T14:50:03;5.32;;;4.40;;
32297;SDS011;18782;48.984;8.548;2023-09-08T14:52:31;4.68;;;3.90;;
32297;SDS011;18782;48.984;8.548;2023-09-08T14:54:59;4.85;;;3.25;;
32297;SDS011;18782;48.984;8.548;2023-09-08T14:57:27;4.82;;;4.00;;
32297;SDS011;18782;48.984;8.548;2023-09-08T14:59:56;4.68;;;4.25;;
32297;SDS011;18782;48.984;8.548;2023-09-08T15:02:24;5.70;;;3.83;;
32297;SDS011;18782;48.984;8.548;2023-09-08T15:04:52;4.03;;;3.60;;